^^
Station Historical Data
 
Daily Summary for November 21, 2018 Units:  Both    English   Metric
« Previous Day
Next Day »
Daily Weekly Monthly Yearly Custom
  Current: High: Low: Average:
Temperature: 74.7 °F /  23.7 °C TemperatureF °F /  -17.8 °C 57.0 °F /  13.9 °C 63.2 °F /  17.3 °C
Dew Point: 36.5 °F /  2.5 °C DewpointF °F /  -17.8 °C 24.6 °F /  -4.1 °C 31 °F /  -0.6 °C
Humidity: 25% Humidity% 21% 30%
Wind Speed: 0.9mph /  1.4km/h WindSpeedMPHmph /  0km/h - 10.7mph /  17.2km/h
Wind Gust: 13.0mph /  20.9km/h WindSpeedGustMPHmph /  0km/h - -
WindNNE - - East
Pressure: 29.78 in /  1008.4 hPa PressureIn in /  0 hPa 29.68 in /  1005 hPa -
Precipitation: 0.00 in /  0 mm      
Historical Graphs
 
 
Tabular Data for November 21, 2018
Time Temperature Dew Point Pressure Wind Wind Speed Wind Gust Humidity Rainfall Rate (Hourly) solar Conditions
TemperatureF °F /  -17.8 °C DewpointF °F /  -17.8 °C PressureInin /  0hPa Calm     Humidity% HourlyPrecipInin /  0mm SolarRadiationWatts/m^2 W/m2 Conditions
00:04 63.5 °F /  17.5 °C 28.0 °F /  -2.2 °C 29.71in /  1006hPa NE 4.9mph /  7.9km/h 5.0mph /  8km/h 26% 0.00in /  0mm 0.00 W/m2
00:08 64.2 °F /  17.9 °C 28.6 °F /  -1.9 °C 29.71in /  1006hPa NE 4.0mph /  6.4km/h 5.0mph /  8km/h 26% 0.00in /  0mm 5.00 W/m2
00:13 64.8 °F /  18.2 °C 29.1 °F /  -1.6 °C 29.71in /  1006hPa NE 2.0mph /  3.2km/h 7.0mph /  11.3km/h 26% 0.00in /  0mm 0.00 W/m2
00:19 64.9 °F /  18.3 °C 26.2 °F /  -3.2 °C 29.71in /  1006hPa SE 2.9mph /  4.7km/h 4.0mph /  6.4km/h 23% 0.00in /  0mm 5.00 W/m2
00:23 65.5 °F /  18.6 °C 25.7 °F /  -3.5 °C 29.70in /  1005.6hPa SSE 2.9mph /  4.7km/h 4.0mph /  6.4km/h 22% 0.00in /  0mm 5.00 W/m2
00:29 66.0 °F /  18.9 °C 28.2 °F /  -2.1 °C 29.70in /  1005.6hPa Calm     24% 0.00in /  0mm 0.00 W/m2
00:33 65.3 °F /  18.5 °C 27.5 °F /  -2.5 °C 29.70in /  1005.6hPa SSW 0.9mph /  1.4km/h 2.0mph /  3.2km/h 24% 0.00in /  0mm 5.00 W/m2
00:39 65.7 °F /  18.7 °C 24.6 °F /  -4.1 °C 29.70in /  1005.6hPa West 6.0mph /  9.7km/h 6.0mph /  9.7km/h 21% 0.00in /  0mm 5.00 W/m2
00:43 67.1 °F /  19.5 °C 25.9 °F /  -3.4 °C 29.70in /  1005.6hPa SW 2.9mph /  4.7km/h 7.0mph /  11.3km/h 21% 0.00in /  0mm 0.00 W/m2
00:49 68.5 °F /  20.3 °C 27.1 °F /  -2.7 °C 29.69in /  1005.3hPa South 2.9mph /  4.7km/h 5.0mph /  8km/h 21% 0.00in /  0mm 5.00 W/m2
00:53 68.7 °F /  20.4 °C 27.1 °F /  -2.7 °C 29.69in /  1005.3hPa Calm   18.0mph /  29km/h 21% 0.00in /  0mm 5.00 W/m2
00:58 68.7 °F /  20.4 °C 27.1 °F /  -2.7 °C 29.69in /  1005.3hPa SW 6.9mph /  11.1km/h 9.0mph /  14.5km/h 21% 0.00in /  0mm 5.00 W/m2
01:04 68.7 °F /  20.4 °C 27.1 °F /  -2.7 °C 29.68in /  1005hPa SW 8.1mph /  13km/h 17.0mph /  27.4km/h 21% 0.00in /  0mm 0.00 W/m2
01:08 68.5 °F /  20.3 °C 28.2 °F /  -2.1 °C 29.69in /  1005.3hPa SSW 6.0mph /  9.7km/h 16.0mph /  25.7km/h 22% 0.00in /  0mm 5.00 W/m2
01:14 68.4 °F /  20.2 °C 28.0 °F /  -2.2 °C 29.69in /  1005.3hPa East 15.0mph /  24.1km/h 15.0mph /  24.1km/h 22% 0.00in /  0mm 5.00 W/m2
01:18 68.2 °F /  20.1 °C 27.9 °F /  -2.3 °C 29.68in /  1005hPa East 4.9mph /  7.9km/h 19.0mph /  30.6km/h 22% 0.00in /  0mm 5.00 W/m2
01:24 67.6 °F /  19.8 °C 28.6 °F /  -1.9 °C 29.68in /  1005hPa South 6.0mph /  9.7km/h 13.0mph /  20.9km/h 23% 0.00in /  0mm 5.00 W/m2
01:28 67.3 °F /  19.6 °C 28.2 °F /  -2.1 °C 29.68in /  1005hPa SE 0.9mph /  1.4km/h 11.0mph /  17.7km/h 23% 0.00in /  0mm 5.00 W/m2
01:34 66.9 °F /  19.4 °C 28.9 °F /  -1.7 °C 29.68in /  1005hPa NW 6.0mph /  9.7km/h 10.0mph /  16.1km/h 24% 0.00in /  0mm 5.00 W/m2
01:38 66.6 °F /  19.2 °C 29.7 °F /  -1.3 °C 29.68in /  1005hPa East 4.0mph /  6.4km/h 7.0mph /  11.3km/h 25% 0.00in /  0mm 5.00 W/m2
01:44 66.0 °F /  18.9 °C 30.2 °F /  -1 °C 29.68in /  1005hPa East 19.0mph /  30.6km/h 19.0mph /  30.6km/h 26% 0.00in /  0mm 5.00 W/m2
01:49 65.7 °F /  18.7 °C 30.7 °F /  -0.7 °C 29.68in /  1005hPa WNW 2.0mph /  3.2km/h 26.0mph /  41.8km/h 27% 0.00in /  0mm 5.00 W/m2
01:53 65.7 °F /  18.7 °C 30.7 °F /  -0.7 °C 29.68in /  1005hPa NNW 10.1mph /  16.3km/h 17.0mph /  27.4km/h 27% 0.00in /  0mm 5.00 W/m2
01:59 65.3 °F /  18.5 °C 30.4 °F /  -0.9 °C 29.68in /  1005hPa East 25.1mph /  40.4km/h 25.0mph /  40.2km/h 27% 0.00in /  0mm 0.00 W/m2
02:03 65.1 °F /  18.4 °C 30.4 °F /  -0.9 °C 29.68in /  1005hPa East 11.0mph /  17.7km/h 18.0mph /  29km/h 27% 0.00in /  0mm 5.00 W/m2
02:09 64.9 °F /  18.3 °C 31.1 °F /  -0.5 °C 29.69in /  1005.3hPa WSW 4.0mph /  6.4km/h 9.0mph /  14.5km/h 28% 0.00in /  0mm 0.00 W/m2
02:13 64.8 °F /  18.2 °C 30.9 °F /  -0.6 °C 29.68in /  1005hPa East 6.9mph /  11.1km/h 7.0mph /  11.3km/h 28% 0.00in /  0mm 5.00 W/m2
02:19 64.2 °F /  17.9 °C 31.3 °F /  -0.4 °C 29.68in /  1005hPa West 4.9mph /  7.9km/h 30.0mph /  48.3km/h 29% 0.00in /  0mm 5.00 W/m2
02:23 63.9 °F /  17.7 °C 30.9 °F /  -0.6 °C 29.68in /  1005hPa East 10.1mph /  16.3km/h 25.0mph /  40.2km/h 29% 0.00in /  0mm 0.00 W/m2
02:29 63.5 °F /  17.5 °C 30.7 °F /  -0.7 °C 29.68in /  1005hPa East 4.0mph /  6.4km/h 18.0mph /  29km/h 29% 0.00in /  0mm 5.00 W/m2
02:33 63.3 °F /  17.4 °C 30.6 °F /  -0.8 °C 29.69in /  1005.3hPa SE 6.0mph /  9.7km/h 10.0mph /  16.1km/h 29% 0.00in /  0mm 5.00 W/m2
02:37 63.1 °F /  17.3 °C 31.3 °F /  -0.4 °C 29.69in /  1005.3hPa East 6.9mph /  11.1km/h 19.0mph /  30.6km/h 30% 0.00in /  0mm 0.00 W/m2
02:44 63.0 °F /  17.2 °C 31.1 °F /  -0.5 °C 29.69in /  1005.3hPa West 6.0mph /  9.7km/h 17.0mph /  27.4km/h 30% 0.00in /  0mm 0.00 W/m2
02:48 62.8 °F /  17.1 °C 30.9 °F /  -0.6 °C 29.69in /  1005.3hPa North 12.1mph /  19.5km/h 15.0mph /  24.1km/h 30% 0.00in /  0mm 0.00 W/m2
02:54 62.4 °F /  16.9 °C 30.6 °F /  -0.8 °C 29.68in /  1005hPa North 21.0mph /  33.8km/h 21.0mph /  33.8km/h 30% 0.00in /  0mm 0.00 W/m2
02:58 62.2 °F /  16.8 °C 31.3 °F /  -0.4 °C 29.70in /  1005.6hPa NE 8.9mph /  14.3km/h 21.0mph /  33.8km/h 31% 0.00in /  0mm 0.00 W/m2
03:04 61.9 °F /  16.6 °C 30.0 °F /  -1.1 °C 29.68in /  1005hPa SSE 4.0mph /  6.4km/h 14.0mph /  22.5km/h 30% 0.00in /  0mm 0.00 W/m2
03:08 61.5 °F /  16.4 °C 29.8 °F /  -1.2 °C 29.68in /  1005hPa East 8.9mph /  14.3km/h 12.0mph /  19.3km/h 30% 0.00in /  0mm 5.00 W/m2
03:14 61.5 °F /  16.4 °C 29.8 °F /  -1.2 °C 29.70in /  1005.6hPa East 8.1mph /  13km/h 16.0mph /  25.7km/h 30% 0.00in /  0mm 5.00 W/m2
03:18 61.3 °F /  16.3 °C 29.7 °F /  -1.3 °C 29.69in /  1005.3hPa NW 6.0mph /  9.7km/h 23.0mph /  37km/h 30% 0.00in /  0mm 0.00 W/m2
03:24 61.2 °F /  16.2 °C 29.5 °F /  -1.4 °C 29.68in /  1005hPa East 6.9mph /  11.1km/h 20.0mph /  32.2km/h 30% 0.00in /  0mm 0.00 W/m2
03:29 61.2 °F /  16.2 °C 29.5 °F /  -1.4 °C 29.69in /  1005.3hPa NNW 10.1mph /  16.3km/h 16.0mph /  25.7km/h 30% 0.00in /  0mm 0.00 W/m2
03:33 61.3 °F /  16.3 °C 28.8 °F /  -1.8 °C 29.69in /  1005.3hPa East 11.0mph /  17.7km/h 15.0mph /  24.1km/h 29% 0.00in /  0mm 5.00 W/m2
03:39 61.3 °F /  16.3 °C 28.8 °F /  -1.8 °C 29.69in /  1005.3hPa North 14.1mph /  22.7km/h 30.0mph /  48.3km/h 29% 0.00in /  0mm 5.00 W/m2
03:43 61.3 °F /  16.3 °C 29.7 °F /  -1.3 °C 29.69in /  1005.3hPa Calm   22.0mph /  35.4km/h 30% 0.00in /  0mm 0.00 W/m2
03:49 61.3 °F /  16.3 °C 28.8 °F /  -1.8 °C 29.69in /  1005.3hPa East 17.0mph /  27.4km/h 17.0mph /  27.4km/h 29% 0.00in /  0mm 0.00 W/m2
03:53 61.2 °F /  16.2 °C 28.6 °F /  -1.9 °C 29.69in /  1005.3hPa East 12.1mph /  19.5km/h 21.0mph /  33.8km/h 29% 0.00in /  0mm 5.00 W/m2
03:59 61.2 °F /  16.2 °C 28.6 °F /  -1.9 °C 29.69in /  1005.3hPa North 13.0mph /  20.9km/h 17.0mph /  27.4km/h 29% 0.00in /  0mm 0.00 W/m2
04:03 61.2 °F /  16.2 °C 28.6 °F /  -1.9 °C 29.69in /  1005.3hPa East 4.0mph /  6.4km/h 16.0mph /  25.7km/h 29% 0.00in /  0mm 5.00 W/m2
04:07 61.2 °F /  16.2 °C 28.6 °F /  -1.9 °C 29.69in /  1005.3hPa ENE 4.9mph /  7.9km/h 20.0mph /  32.2km/h 29% 0.00in /  0mm 5.00 W/m2
04:14 61.2 °F /  16.2 °C 28.6 °F /  -1.9 °C 29.69in /  1005.3hPa East 6.0mph /  9.7km/h 19.0mph /  30.6km/h 29% 0.00in /  0mm 0.00 W/m2
04:18 61.2 °F /  16.2 °C 28.6 °F /  -1.9 °C 29.69in /  1005.3hPa East 25.1mph /  40.4km/h 25.0mph /  40.2km/h 29% 0.00in /  0mm 5.00 W/m2
04:24 61.2 °F /  16.2 °C 28.6 °F /  -1.9 °C 29.70in /  1005.6hPa North 6.0mph /  9.7km/h 24.0mph /  38.6km/h 29% 0.00in /  0mm 5.00 W/m2
04:28 61.2 °F /  16.2 °C 28.6 °F /  -1.9 °C 29.69in /  1005.3hPa NE 11.0mph /  17.7km/h 29.0mph /  46.7km/h 29% 0.00in /  0mm 5.00 W/m2
04:34 61.2 °F /  16.2 °C 28.6 °F /  -1.9 °C 29.69in /  1005.3hPa East 10.1mph /  16.3km/h 18.0mph /  29km/h 29% 0.00in /  0mm 0.00 W/m2
04:38 61.0 °F /  16.1 °C 28.6 °F /  -1.9 °C 29.69in /  1005.3hPa North 14.1mph /  22.7km/h 20.0mph /  32.2km/h 29% 0.00in /  0mm 5.00 W/m2
04:44 60.8 °F /  16 °C 28.4 °F /  -2 °C 29.69in /  1005.3hPa East 21.9mph /  35.2km/h 22.0mph /  35.4km/h 29% 0.00in /  0mm 5.00 W/m2
04:48 60.6 °F /  15.9 °C 28.9 °F /  -1.7 °C 29.70in /  1005.6hPa NNE 17.0mph /  27.4km/h 18.0mph /  29km/h 30% 0.00in /  0mm 0.00 W/m2
04:52 60.4 °F /  15.8 °C 28.9 °F /  -1.7 °C 29.70in /  1005.6hPa East 13.0mph /  20.9km/h 17.0mph /  27.4km/h 30% 0.00in /  0mm 5.00 W/m2
04:59 60.3 °F /  15.7 °C 28.8 °F /  -1.8 °C 29.70in /  1005.6hPa East 17.0mph /  27.4km/h 22.0mph /  35.4km/h 30% 0.00in /  0mm 0.00 W/m2
05:03 60.1 °F /  15.6 °C 29.3 °F /  -1.5 °C 29.70in /  1005.6hPa East 2.9mph /  4.7km/h 13.0mph /  20.9km/h 31% 0.00in /  0mm 0.00 W/m2
05:09 59.9 °F /  15.5 °C 28.4 °F /  -2 °C 29.70in /  1005.6hPa NNE 6.9mph /  11.1km/h 20.0mph /  32.2km/h 30% 0.00in /  0mm 0.00 W/m2
05:13 59.7 °F /  15.4 °C 28.9 °F /  -1.7 °C 29.70in /  1005.6hPa ENE 12.1mph /  19.5km/h 16.0mph /  25.7km/h 31% 0.00in /  0mm 5.00 W/m2
05:19 59.4 °F /  15.2 °C 28.8 °F /  -1.8 °C 29.70in /  1005.6hPa North 11.0mph /  17.7km/h 15.0mph /  24.1km/h 31% 0.00in /  0mm 5.00 W/m2
05:23 59.4 °F /  15.2 °C 28.8 °F /  -1.8 °C 29.70in /  1005.6hPa ENE 10.1mph /  16.3km/h 18.0mph /  29km/h 31% 0.00in /  0mm 5.00 W/m2
05:29 58.8 °F /  14.9 °C 28.9 °F /  -1.7 °C 29.72in /  1006.3hPa NE 8.9mph /  14.3km/h 15.0mph /  24.1km/h 32% 0.00in /  0mm 0.00 W/m2
05:34 58.8 °F /  14.9 °C 28.9 °F /  -1.7 °C 29.72in /  1006.3hPa East 12.1mph /  19.5km/h 17.0mph /  27.4km/h 32% 0.00in /  0mm 5.00 W/m2
05:38 58.6 °F /  14.8 °C 28.9 °F /  -1.7 °C 29.72in /  1006.3hPa NE 4.0mph /  6.4km/h 19.0mph /  30.6km/h 32% 0.00in /  0mm 5.00 W/m2
05:44 58.3 °F /  14.6 °C 29.3 °F /  -1.5 °C 29.72in /  1006.3hPa NE 2.9mph /  4.7km/h 14.0mph /  22.5km/h 33% 0.00in /  0mm 5.00 W/m2
05:48 57.9 °F /  14.4 °C 28.9 °F /  -1.7 °C 29.72in /  1006.3hPa East 16.1mph /  25.9km/h 17.0mph /  27.4km/h 33% 0.00in /  0mm 5.00 W/m2
05:54 57.7 °F /  14.3 °C 29.5 °F /  -1.4 °C 29.72in /  1006.3hPa NNE 19.9mph /  32km/h 21.0mph /  33.8km/h 34% 0.00in /  0mm 7.00 W/m2
05:58 57.7 °F /  14.3 °C 29.5 °F /  -1.4 °C 29.72in /  1006.3hPa NE 10.1mph /  16.3km/h 19.0mph /  30.6km/h 34% 0.00in /  0mm 9.00 W/m2
06:02 57.6 °F /  14.2 °C 29.5 °F /  -1.4 °C 29.72in /  1006.3hPa NE 12.1mph /  19.5km/h 20.0mph /  32.2km/h 34% 0.00in /  0mm 11.00 W/m2
06:09 57.6 °F /  14.2 °C 29.5 °F /  -1.4 °C 29.72in /  1006.3hPa NNE 6.0mph /  9.7km/h 18.0mph /  29km/h 34% 0.00in /  0mm 18.00 W/m2
06:13 57.6 °F /  14.2 °C 29.5 °F /  -1.4 °C 29.72in /  1006.3hPa NNE 16.1mph /  25.9km/h 19.0mph /  30.6km/h 34% 0.00in /  0mm 23.00 W/m2
06:19 57.7 °F /  14.3 °C 29.5 °F /  -1.4 °C 29.72in /  1006.3hPa NE 11.0mph /  17.7km/h 18.0mph /  29km/h 34% 0.00in /  0mm 30.00 W/m2
06:23 57.6 °F /  14.2 °C 29.5 °F /  -1.4 °C 29.72in /  1006.3hPa NE 19.9mph /  32km/h 20.0mph /  32.2km/h 34% 0.00in /  0mm 33.00 W/m2
06:29 57.6 °F /  14.2 °C 29.5 °F /  -1.4 °C 29.73in /  1006.7hPa NNE 23.0mph /  37km/h 23.0mph /  37km/h 34% 0.00in /  0mm 40.00 W/m2
06:33 57.6 °F /  14.2 °C 30.0 °F /  -1.1 °C 29.73in /  1006.7hPa East 15.0mph /  24.1km/h 24.0mph /  38.6km/h 35% 0.00in /  0mm 35.00 W/m2
06:39 57.4 °F /  14.1 °C 30.0 °F /  -1.1 °C 29.73in /  1006.7hPa North 16.1mph /  25.9km/h 29.0mph /  46.7km/h 35% 0.00in /  0mm 33.00 W/m2
06:41 57.4 °F /  14.1 °C 30.0 °F /  -1.1 °C 29.73in /  1006.7hPa NE 10.1mph /  16.3km/h 26.0mph /  41.8km/h 35% 0.00in /  0mm 39.00 W/m2
06:49 57.2 °F /  14 °C 29.8 °F /  -1.2 °C 29.74in /  1007hPa East 6.0mph /  9.7km/h 19.0mph /  30.6km/h 35% 0.00in /  0mm 58.00 W/m2
06:53 57.4 °F /  14.1 °C 30.6 °F /  -0.8 °C 29.73in /  1006.7hPa East 12.1mph /  19.5km/h 23.0mph /  37km/h 36% 0.00in /  0mm 60.00 W/m2
06:59 57.4 °F /  14.1 °C 30.6 °F /  -0.8 °C 29.74in /  1007hPa East 10.1mph /  16.3km/h 19.0mph /  30.6km/h 36% 0.00in /  0mm 70.00 W/m2
07:03 57.6 °F /  14.2 °C 30.0 °F /  -1.1 °C 29.74in /  1007hPa East 8.9mph /  14.3km/h 23.0mph /  37km/h 35% 0.00in /  0mm 158.00 W/m2
07:09 57.6 °F /  14.2 °C 30.7 °F /  -0.7 °C 29.75in /  1007.3hPa East 10.1mph /  16.3km/h 23.0mph /  37km/h 36% 0.00in /  0mm 88.00 W/m2
07:13 57.4 °F /  14.1 °C 30.6 °F /  -0.8 °C 29.75in /  1007.3hPa NE 13.0mph /  20.9km/h 22.0mph /  35.4km/h 36% 0.00in /  0mm 95.00 W/m2
07:19 57.2 °F /  14 °C 31.1 °F /  -0.5 °C 29.75in /  1007.3hPa NNE 4.0mph /  6.4km/h 18.0mph /  29km/h 37% 0.00in /  0mm 69.00 W/m2
07:23 57.0 °F /  13.9 °C 30.9 °F /  -0.6 °C 29.75in /  1007.3hPa East 14.1mph /  22.7km/h 20.0mph /  32.2km/h 37% 0.00in /  0mm 77.00 W/m2
07:29 57.6 °F /  14.2 °C 30.7 °F /  -0.7 °C 29.75in /  1007.3hPa NNE 14.1mph /  22.7km/h 20.0mph /  32.2km/h 36% 0.00in /  0mm 232.00 W/m2
07:33 57.9 °F /  14.4 °C 31.1 °F /  -0.5 °C 29.76in /  1007.7hPa NNE 11.0mph /  17.7km/h 22.0mph /  35.4km/h 36% 0.00in /  0mm 234.00 W/m2
07:38 58.3 °F /  14.6 °C 31.5 °F /  -0.3 °C 29.76in /  1007.7hPa East 11.0mph /  17.7km/h 17.0mph /  27.4km/h 36% 0.00in /  0mm 239.00 W/m2
07:44 58.5 °F /  14.7 °C 31.6 °F /  -0.2 °C 29.76in /  1007.7hPa East 12.1mph /  19.5km/h 24.0mph /  38.6km/h 36% 0.00in /  0mm 260.00 W/m2
07:48 58.8 °F /  14.9 °C 31.3 °F /  -0.4 °C 29.76in /  1007.7hPa North 14.1mph /  22.7km/h 21.0mph /  33.8km/h 35% 0.00in /  0mm 292.00 W/m2
07:54 58.8 °F /  14.9 °C 31.3 °F /  -0.4 °C 29.76in /  1007.7hPa NNW 13.0mph /  20.9km/h 22.0mph /  35.4km/h 35% 0.00in /  0mm 318.00 W/m2
07:58 59.2 °F /  15.1 °C 31.5 °F /  -0.3 °C 29.76in /  1007.7hPa East 21.0mph /  33.8km/h 24.0mph /  38.6km/h 35% 0.00in /  0mm 338.00 W/m2
08:04 59.4 °F /  15.2 °C 31.6 °F /  -0.2 °C 29.76in /  1007.7hPa NE 8.9mph /  14.3km/h 18.0mph /  29km/h 35% 0.00in /  0mm 357.00 W/m2
08:08 59.9 °F /  15.5 °C 32.2 °F /  0.1 °C 29.76in /  1007.7hPa East 6.9mph /  11.1km/h 18.0mph /  29km/h 35% 0.00in /  0mm 366.00 W/m2
08:12 60.3 °F /  15.7 °C 32.5 °F /  0.3 °C 29.76in /  1007.7hPa East 17.9mph /  28.8km/h 24.0mph /  38.6km/h 35% 0.00in /  0mm 380.00 W/m2
08:19 60.6 °F /  15.9 °C 32.9 °F /  0.5 °C 29.77in /  1008hPa East 17.9mph /  28.8km/h 22.0mph /  35.4km/h 35% 0.00in /  0mm 399.00 W/m2
08:23 61.2 °F /  16.2 °C 32.5 °F /  0.3 °C 29.76in /  1007.7hPa NNE 10.1mph /  16.3km/h 21.0mph /  33.8km/h 34% 0.00in /  0mm 411.00 W/m2
08:29 61.9 °F /  16.6 °C 33.3 °F /  0.7 °C 29.77in /  1008hPa North 16.1mph /  25.9km/h 26.0mph /  41.8km/h 34% 0.00in /  0mm 438.00 W/m2
08:33 62.1 °F /  16.7 °C 32.5 °F /  0.3 °C 29.77in /  1008hPa East 15.0mph /  24.1km/h 20.0mph /  32.2km/h 33% 0.00in /  0mm 454.00 W/m2
08:39 62.2 °F /  16.8 °C 32.7 °F /  0.4 °C 29.76in /  1007.7hPa East 17.0mph /  27.4km/h 21.0mph /  33.8km/h 33% 0.00in /  0mm 478.00 W/m2
08:43 62.4 °F /  16.9 °C 32.9 °F /  0.5 °C 29.77in /  1008hPa NE 17.9mph /  28.8km/h 24.0mph /  38.6km/h 33% 0.00in /  0mm 494.00 W/m2
08:49 62.6 °F /  17 °C 33.1 °F /  0.6 °C 29.77in /  1008hPa East 17.9mph /  28.8km/h 19.0mph /  30.6km/h 33% 0.00in /  0mm 496.00 W/m2
08:53 62.8 °F /  17.1 °C 33.3 °F /  0.7 °C 29.77in /  1008hPa NNE 19.9mph /  32km/h 22.0mph /  35.4km/h 33% 0.00in /  0mm 520.00 W/m2
08:57 63.1 °F /  17.3 °C 33.6 °F /  0.9 °C 29.77in /  1008hPa NNE 19.9mph /  32km/h 29.0mph /  46.7km/h 33% 0.00in /  0mm 519.00 W/m2
09:04 63.3 °F /  17.4 °C 33.8 °F /  1 °C 29.77in /  1008hPa East 16.1mph /  25.9km/h 23.0mph /  37km/h 33% 0.00in /  0mm 533.00 W/m2
09:08 63.7 °F /  17.6 °C 34.0 °F /  1.1 °C 29.77in /  1008hPa East 13.0mph /  20.9km/h 21.0mph /  33.8km/h 33% 0.00in /  0mm 555.00 W/m2
09:14 64.0 °F /  17.8 °C 33.6 °F /  0.9 °C 29.78in /  1008.4hPa NE 19.0mph /  30.6km/h 23.0mph /  37km/h 32% 0.00in /  0mm 580.00 W/m2
09:18 64.2 °F /  17.9 °C 33.8 °F /  1 °C 29.78in /  1008.4hPa NE 13.0mph /  20.9km/h 23.0mph /  37km/h 32% 0.00in /  0mm 598.00 W/m2
09:24 64.2 °F /  17.9 °C 33.8 °F /  1 °C 29.78in /  1008.4hPa North 19.0mph /  30.6km/h 21.0mph /  33.8km/h 32% 0.00in /  0mm 613.00 W/m2
09:28 64.6 °F /  18.1 °C 34.0 °F /  1.1 °C 29.78in /  1008.4hPa NNE 19.0mph /  30.6km/h 25.0mph /  40.2km/h 32% 0.00in /  0mm 624.00 W/m2
09:34 65.1 °F /  18.4 °C 34.5 °F /  1.4 °C 29.79in /  1008.7hPa NNE 11.0mph /  17.7km/h 21.0mph /  33.8km/h 32% 0.00in /  0mm 612.00 W/m2
09:38 65.1 °F /  18.4 °C 34.5 °F /  1.4 °C 29.79in /  1008.7hPa NNE 11.0mph /  17.7km/h 19.0mph /  30.6km/h 32% 0.00in /  0mm 621.00 W/m2
09:43 65.5 °F /  18.6 °C 34.9 °F /  1.6 °C 29.78in /  1008.4hPa NNE 12.1mph /  19.5km/h 21.0mph /  33.8km/h 32% 0.00in /  0mm 645.00 W/m2
09:49 65.8 °F /  18.8 °C 34.3 °F /  1.3 °C 29.79in /  1008.7hPa East 14.1mph /  22.7km/h 17.0mph /  27.4km/h 31% 0.00in /  0mm 652.00 W/m2
09:53 66.0 °F /  18.9 °C 34.5 °F /  1.4 °C 29.79in /  1008.7hPa East 19.9mph /  32km/h 21.0mph /  33.8km/h 31% 0.00in /  0mm 673.00 W/m2
09:59 66.6 °F /  19.2 °C 35.1 °F /  1.7 °C 29.79in /  1008.7hPa NNE 14.1mph /  22.7km/h 23.0mph /  37km/h 31% 0.00in /  0mm 691.00 W/m2
10:03 66.4 °F /  19.1 °C 34.9 °F /  1.6 °C 29.79in /  1008.7hPa East 19.0mph /  30.6km/h 19.0mph /  30.6km/h 31% 0.00in /  0mm 700.00 W/m2
10:09 67.1 °F /  19.5 °C 35.4 °F /  1.9 °C 29.80in /  1009hPa East 16.1mph /  25.9km/h 20.0mph /  32.2km/h 31% 0.00in /  0mm 714.00 W/m2
10:13 67.3 °F /  19.6 °C 35.6 °F /  2 °C 29.79in /  1008.7hPa East 11.0mph /  17.7km/h 15.0mph /  24.1km/h 31% 0.00in /  0mm 749.00 W/m2
10:19 67.6 °F /  19.8 °C 35.1 °F /  1.7 °C 29.80in /  1009hPa North 12.1mph /  19.5km/h 16.0mph /  25.7km/h 30% 0.00in /  0mm 758.00 W/m2
10:23 67.8 °F /  19.9 °C 35.2 °F /  1.8 °C 29.80in /  1009hPa East 6.9mph /  11.1km/h 19.0mph /  30.6km/h 30% 0.00in /  0mm 768.00 W/m2
10:28 68.5 °F /  20.3 °C 36.0 °F /  2.2 °C 29.79in /  1008.7hPa East 11.0mph /  17.7km/h 16.0mph /  25.7km/h 30% 0.00in /  0mm 768.00 W/m2
10:34 69.6 °F /  20.9 °C 36.0 °F /  2.2 °C 29.79in /  1008.7hPa NE 14.1mph /  22.7km/h 19.0mph /  30.6km/h 29% 0.00in /  0mm 796.00 W/m2
10:38 69.4 °F /  20.8 °C 35.8 °F /  2.1 °C 29.78in /  1008.4hPa East 14.1mph /  22.7km/h 17.0mph /  27.4km/h 29% 0.00in /  0mm 795.00 W/m2
10:44 70.0 °F /  21.1 °C 36.3 °F /  2.4 °C 29.79in /  1008.7hPa East 4.9mph /  7.9km/h 17.0mph /  27.4km/h 29% 0.00in /  0mm 803.00 W/m2
10:48 70.3 °F /  21.3 °C 35.6 °F /  2 °C 29.79in /  1008.7hPa East 11.0mph /  17.7km/h 17.0mph /  27.4km/h 28% 0.00in /  0mm 816.00 W/m2
10:54 70.9 °F /  21.6 °C 36.1 °F /  2.3 °C 29.79in /  1008.7hPa East 10.1mph /  16.3km/h 15.0mph /  24.1km/h 28% 0.00in /  0mm 837.00 W/m2
10:58 71.1 °F /  21.7 °C 36.3 °F /  2.4 °C 29.78in /  1008.4hPa NE 6.9mph /  11.1km/h 17.0mph /  27.4km/h 28% 0.00in /  0mm 837.00 W/m2
11:04 71.4 °F /  21.9 °C 35.8 °F /  2.1 °C 29.78in /  1008.4hPa East 6.0mph /  9.7km/h 17.0mph /  27.4km/h 27% 0.00in /  0mm 846.00 W/m2
11:08 71.4 °F /  21.9 °C 35.8 °F /  2.1 °C 29.79in /  1008.7hPa NNE 8.9mph /  14.3km/h 16.0mph /  25.7km/h 27% 0.00in /  0mm 851.00 W/m2
11:14 72.3 °F /  22.4 °C 36.5 °F /  2.5 °C 29.78in /  1008.4hPa East 12.1mph /  19.5km/h 19.0mph /  30.6km/h 27% 0.00in /  0mm 863.00 W/m2
11:19 72.7 °F /  22.6 °C 36.9 °F /  2.7 °C 29.78in /  1008.4hPa East 12.1mph /  19.5km/h 16.0mph /  25.7km/h 27% 0.00in /  0mm 842.00 W/m2
11:23 72.7 °F /  22.6 °C 36.9 °F /  2.7 °C 29.78in /  1008.4hPa East 8.1mph /  13km/h 16.0mph /  25.7km/h 27% 0.00in /  0mm 842.00 W/m2
11:29 72.9 °F /  22.7 °C 36.9 °F /  2.7 °C 29.78in /  1008.4hPa East 12.1mph /  19.5km/h 16.0mph /  25.7km/h 27% 0.00in /  0mm 853.00 W/m2
11:33 73.2 °F /  22.9 °C 36.3 °F /  2.4 °C 29.78in /  1008.4hPa NNE 12.1mph /  19.5km/h 22.0mph /  35.4km/h 26% 0.00in /  0mm 882.00 W/m2
11:39 73.9 °F /  23.3 °C 36.9 °F /  2.7 °C 29.78in /  1008.4hPa East 11.0mph /  17.7km/h 14.0mph /  22.5km/h 26% 0.00in /  0mm 881.00 W/m2
11:43 74.1 °F /  23.4 °C 37.0 °F /  2.8 °C 29.78in /  1008.4hPa North 11.0mph /  17.7km/h 18.0mph /  29km/h 26% 0.00in /  0mm 886.00 W/m2
11:49 73.9 °F /  23.3 °C 36.9 °F /  2.7 °C 29.78in /  1008.4hPa NNE 6.0mph /  9.7km/h 14.0mph /  22.5km/h 26% 0.00in /  0mm 879.00 W/m2
11:53 74.3 °F /  23.5 °C 37.2 °F /  2.9 °C 29.78in /  1008.4hPa NNE 17.0mph /  27.4km/h 20.0mph /  32.2km/h 26% 0.00in /  0mm 912.00 W/m2
11:59 74.5 °F /  23.6 °C 37.4 °F /  3 °C 29.78in /  1008.4hPa NNE 11.0mph /  17.7km/h 14.0mph /  22.5km/h 26% 0.00in /  0mm 912.00 W/m2
12:04 74.3 °F /  23.5 °C 36.1 °F /  2.3 °C 29.78in /  1008.4hPa North 10.1mph /  16.3km/h 14.0mph /  22.5km/h 25% 0.00in /  0mm 896.00 W/m2
12:08 74.7 °F /  23.7 °C 36.5 °F /  2.5 °C 29.78in /  1008.4hPa NNE 0.9mph /  1.4km/h 13.0mph /  20.9km/h 25% 0.00in /  0mm 893.00 W/m2
Regenstein, Windhoek, Namibia
Compliments of Weather Underground - 2.5 mb